AKQ weather

Wakefield Municipal Airport
Wakefield, Virginia, United States

Public forecast

Using degrees Fahrenheit for public forecast. Weather courtesy of forecast.io.

Current aviation weather report (METAR) for Wakefield Municipal Airport

Retrieved 2019/11/12 23:54 UTC (1 hour ago):

KAKQ 122354Z AUTO 00000KT 10SM UP FEW005 01/00 A3012 RMK AO2 SLP200 P0000 60024 T00110000 10044 20011 53023

Closest aviation forecast (TAF) to Wakefield Municipal Airport

Closest forecast is Felker Army Air Field, 20.7 nm (38.4 km) ENE. Retrieved 2019/11/12 19:00 UTC (6 hours ago):

TAF TAF KFAF 121900Z 1219/1401 33020G25KT 8000 -RA BKN012 OVC025 QNH2994INS BECMG 1220/1221 34010G15KT 8000 -RA BKN015 BKN020 QNH2999INS BECMG 1223/1224 33010G15KT 9999 NSW SCT030 QNH3006INS BECMG 1311/1312 34012KT 9999 SKC QNH3031INS TEMPO 1313/1316 34015G20KT BECMG 1320/1321 VRB06KT 9999 SKC QNH3035INS TX04/1318Z TNM01/1311Z LAST NO AMDS AFT 1219 NEXT 1311